sensor_id;sensor_type;location;lat;lon;timestamp;P1;durP1;ratioP1;P2;durP2;ratioP2
18748;SDS011;9503;53.560;10.246;2023-04-25T00:01:22;9.57;;;5.67;;
18748;SDS011;9503;53.560;10.246;2023-04-25T00:03:49;10.37;;;5.53;;
18748;SDS011;9503;53.560;10.246;2023-04-25T00:06:17;10.87;;;6.00;;
18748;SDS011;9503;53.560;10.246;2023-04-25T00:08:43;11.03;;;5.77;;
18748;SDS011;9503;53.560;10.246;2023-04-25T00:11:10;9.33;;;5.70;;
18748;SDS011;9503;53.560;10.246;2023-04-25T00:13:37;7.40;;;5.53;;
18748;SDS011;9503;53.560;10.246;2023-04-25T00:16:06;8.23;;;5.13;;
18748;SDS011;9503;53.560;10.246;2023-04-25T00:18:33;10.97;;;5.87;;
18748;SDS011;9503;53.560;10.246;2023-04-25T00:20:59;9.60;;;5.50;;
18748;SDS011;9503;53.560;10.246;2023-04-25T00:23:27;12.23;;;6.60;;
18748;SDS011;9503;53.560;10.246;2023-04-25T00:25:54;10.23;;;6.00;;
18748;SDS011;9503;53.560;10.246;2023-04-25T00:28:21;10.47;;;5.80;;
18748;SDS011;9503;53.560;10.246;2023-04-25T00:30:48;12.30;;;6.20;;
18748;SDS011;9503;53.560;10.246;2023-04-25T00:33:14;12.30;;;6.23;;
18748;SDS011;9503;53.560;10.246;2023-04-25T00:35:41;13.40;;;6.30;;
18748;SDS011;9503;53.560;10.246;2023-04-25T00:38:08;15.10;;;6.17;;
18748;SDS011;9503;53.560;10.246;2023-04-25T00:40:36;13.03;;;5.87;;
18748;SDS011;9503;53.560;10.246;2023-04-25T00:43:04;19.90;;;6.77;;
18748;SDS011;9503;53.560;10.246;2023-04-25T00:45:30;17.13;;;6.60;;
18748;SDS011;9503;53.560;10.246;2023-04-25T00:47:57;16.43;;;6.57;;
18748;SDS011;9503;53.560;10.246;2023-04-25T00:50:24;15.83;;;5.40;;
18748;SDS011;9503;53.560;10.246;2023-04-25T00:52:51;21.87;;;6.20;;
18748;SDS011;9503;53.560;10.246;2023-04-25T00:55:18;19.50;;;5.50;;
18748;SDS011;9503;53.560;10.246;2023-04-25T00:57:47;12.97;;;5.17;;
18748;SDS011;9503;53.560;10.246;2023-04-25T01:00:14;19.47;;;5.57;;
18748;SDS011;9503;53.560;10.246;2023-04-25T01:02:41;16.93;;;5.23;;
18748;SDS011;9503;53.560;10.246;2023-04-25T01:05:08;21.53;;;4.93;;
18748;SDS011;9503;53.560;10.246;2023-04-25T01:07:35;27.23;;;6.50;;
18748;SDS011;9503;53.560;10.246;2023-04-25T01:10:01;23.50;;;5.53;;
18748;SDS011;9503;53.560;10.246;2023-04-25T01:12:28;20.20;;;5.47;;
18748;SDS011;9503;53.560;10.246;2023-04-25T01:14:57;24.00;;;6.13;;
18748;SDS011;9503;53.560;10.246;2023-04-25T01:17:24;32.57;;;5.23;;
18748;SDS011;9503;53.560;10.246;2023-04-25T01:19:50;27.80;;;5.37;;
18748;SDS011;9503;53.560;10.246;2023-04-25T01:22:18;30.83;;;7.33;;
18748;SDS011;9503;53.560;10.246;2023-04-25T01:24:45;22.90;;;5.57;;
18748;SDS011;9503;53.560;10.246;2023-04-25T01:27:12;21.53;;;4.93;;
18748;SDS011;9503;53.560;10.246;2023-04-25T01:33:02;25.73;;;4.70;;
18748;SDS011;9503;53.560;10.246;2023-04-25T01:35:30;19.17;;;5.20;;
18748;SDS011;9503;53.560;10.246;2023-04-25T01:37:58;25.73;;;6.03;;
18748;SDS011;9503;53.560;10.246;2023-04-25T01:40:25;21.23;;;4.87;;
18748;SDS011;9503;53.560;10.246;2023-04-25T01:42:54;21.43;;;5.23;;
18748;SDS011;9503;53.560;10.246;2023-04-25T01:45:21;29.63;;;6.33;;
18748;SDS011;9503;53.560;10.246;2023-04-25T01:47:48;24.63;;;5.63;;
18748;SDS011;9503;53.560;10.246;2023-04-25T01:50:15;28.60;;;5.93;;
18748;SDS011;9503;53.560;10.246;2023-04-25T01:52:42;24.60;;;4.60;;
18748;SDS011;9503;53.560;10.246;2023-04-25T01:55:10;22.93;;;5.30;;
18748;SDS011;9503;53.560;10.246;2023-04-25T01:57:37;27.93;;;5.80;;
18748;SDS011;9503;53.560;10.246;2023-04-25T02:00:05;23.73;;;4.30;;
18748;SDS011;9503;53.560;10.246;2023-04-25T02:02:33;26.50;;;6.33;;
18748;SDS011;9503;53.560;10.246;2023-04-25T02:05:00;25.63;;;4.93;;
18748;SDS011;9503;53.560;10.246;2023-04-25T02:07:27;27.30;;;5.47;;
18748;SDS011;9503;53.560;10.246;2023-04-25T02:13:16;23.73;;;5.13;;
18748;SDS011;9503;53.560;10.246;2023-04-25T02:15:42;32.43;;;8.23;;
18748;SDS011;9503;53.560;10.246;2023-04-25T02:18:09;20.73;;;4.73;;
18748;SDS011;9503;53.560;10.246;2023-04-25T02:20:36;20.97;;;4.80;;
18748;SDS011;9503;53.560;10.246;2023-04-25T02:23:02;24.07;;;4.83;;
18748;SDS011;9503;53.560;10.246;2023-04-25T02:25:30;29.87;;;5.87;;
18748;SDS011;9503;53.560;10.246;2023-04-25T02:27:56;22.03;;;4.43;;
18748;SDS011;9503;53.560;10.246;2023-04-25T02:30:24;26.77;;;4.90;;
18748;SDS011;9503;53.560;10.246;2023-04-25T02:32:51;21.67;;;4.73;;
18748;SDS011;9503;53.560;10.246;2023-04-25T02:35:18;22.23;;;4.47;;
18748;SDS011;9503;53.560;10.246;2023-04-25T02:37:44;28.07;;;4.63;;
18748;SDS011;9503;53.560;10.246;2023-04-25T02:40:11;24.50;;;7.43;;
18748;SDS011;9503;53.560;10.246;2023-04-25T02:42:38;20.07;;;5.30;;
18748;SDS011;9503;53.560;10.246;2023-04-25T02:45:05;29.33;;;5.03;;
18748;SDS011;9503;53.560;10.246;2023-04-25T02:47:33;24.43;;;4.63;;
18748;SDS011;9503;53.560;10.246;2023-04-25T02:50:00;19.03;;;5.13;;
18748;SDS011;9503;53.560;10.246;2023-04-25T02:52:26;21.90;;;4.60;;
18748;SDS011;9503;53.560;10.246;2023-04-25T02:54:53;25.67;;;5.13;;
18748;SDS011;9503;53.560;10.246;2023-04-25T02:57:19;25.47;;;5.23;;
18748;SDS011;9503;53.560;10.246;2023-04-25T02:59:46;19.93;;;4.93;;
18748;SDS011;9503;53.560;10.246;2023-04-25T03:02:13;25.27;;;4.80;;
18748;SDS011;9503;53.560;10.246;2023-04-25T03:04:41;16.80;;;4.47;;
18748;SDS011;9503;53.560;10.246;2023-04-25T03:07:07;25.40;;;4.53;;
18748;SDS011;9503;53.560;10.246;2023-04-25T03:09:34;20.40;;;5.43;;
18748;SDS011;9503;53.560;10.246;2023-04-25T03:12:00;24.60;;;5.20;;
18748;SDS011;9503;53.560;10.246;2023-04-25T03:48:36;25.80;;;4.87;;
18748;SDS011;9503;53.560;10.246;2023-04-25T03:51:03;17.40;;;4.77;;
18748;SDS011;9503;53.560;10.246;2023-04-25T03:53:31;24.83;;;4.60;;
18748;SDS011;9503;53.560;10.246;2023-04-25T03:55:58;17.43;;;4.80;;
18748;SDS011;9503;53.560;10.246;2023-04-25T03:58:24;26.23;;;4.40;;
18748;SDS011;9503;53.560;10.246;2023-04-25T04:00:51;24.80;;;3.90;;
18748;SDS011;9503;53.560;10.246;2023-04-25T04:03:17;20.50;;;4.20;;
18748;SDS011;9503;53.560;10.246;2023-04-25T04:05:46;16.17;;;4.23;;
18748;SDS011;9503;53.560;10.246;2023-04-25T04:08:13;15.83;;;3.93;;
18748;SDS011;9503;53.560;10.246;2023-04-25T04:10:39;28.57;;;4.17;;
18748;SDS011;9503;53.560;10.246;2023-04-25T04:13:06;17.37;;;4.20;;
18748;SDS011;9503;53.560;10.246;2023-04-25T04:15:32;22.43;;;4.73;;
18748;SDS011;9503;53.560;10.246;2023-04-25T04:17:59;18.00;;;4.33;;
18748;SDS011;9503;53.560;10.246;2023-04-25T04:20:27;21.43;;;4.30;;
18748;SDS011;9503;53.560;10.246;2023-04-25T04:22:58;20.70;;;4.73;;
18748;SDS011;9503;53.560;10.246;2023-04-25T04:25:26;18.33;;;3.60;;
18748;SDS011;9503;53.560;10.246;2023-04-25T04:27:53;30.07;;;5.20;;
18748;SDS011;9503;53.560;10.246;2023-04-25T04:30:21;18.53;;;4.33;;
18748;SDS011;9503;53.560;10.246;2023-04-25T04:32:49;16.17;;;3.50;;
18748;SDS011;9503;53.560;10.246;2023-04-25T04:35:15;20.20;;;4.87;;
18748;SDS011;9503;53.560;10.246;2023-04-25T04:37:42;20.47;;;4.00;;
18748;SDS011;9503;53.560;10.246;2023-04-25T04:40:12;18.37;;;4.00;;
18748;SDS011;9503;53.560;10.246;2023-04-25T04:42:40;22.40;;;4.07;;
18748;SDS011;9503;53.560;10.246;2023-04-25T04:45:07;17.93;;;3.80;;
18748;SDS011;9503;53.560;10.246;2023-04-25T04:47:35;19.87;;;4.33;;
18748;SDS011;9503;53.560;10.246;2023-04-25T04:50:01;15.43;;;4.20;;
18748;SDS011;9503;53.560;10.246;2023-04-25T04:52:29;15.93;;;4.50;;
18748;SDS011;9503;53.560;10.246;2023-04-25T04:54:55;14.70;;;4.17;;
18748;SDS011;9503;53.560;10.246;2023-04-25T04:57:25;15.40;;;4.37;;
18748;SDS011;9503;53.560;10.246;2023-04-25T04:59:52;18.87;;;3.70;;
18748;SDS011;9503;53.560;10.246;2023-04-25T05:02:18;12.27;;;3.20;;
18748;SDS011;9503;53.560;10.246;2023-04-25T05:04:45;12.90;;;3.67;;
18748;SDS011;9503;53.560;10.246;2023-04-25T05:07:12;17.27;;;3.83;;
18748;SDS011;9503;53.560;10.246;2023-04-25T05:09:38;13.77;;;3.53;;
18748;SDS011;9503;53.560;10.246;2023-04-25T05:12:05;17.53;;;4.27;;
18748;SDS011;9503;53.560;10.246;2023-04-25T05:14:34;11.27;;;3.20;;
18748;SDS011;9503;53.560;10.246;2023-04-25T05:17:00;20.50;;;4.03;;
18748;SDS011;9503;53.560;10.246;2023-04-25T05:19:29;18.03;;;3.33;;
18748;SDS011;9503;53.560;10.246;2023-04-25T05:21:56;15.23;;;4.23;;
18748;SDS011;9503;53.560;10.246;2023-04-25T05:24:22;15.07;;;3.33;;
18748;SDS011;9503;53.560;10.246;2023-04-25T05:26:49;17.73;;;3.40;;
18748;SDS011;9503;53.560;10.246;2023-04-25T05:29:16;14.73;;;3.37;;
18748;SDS011;9503;53.560;10.246;2023-04-25T05:31:44;14.23;;;3.97;;
18748;SDS011;9503;53.560;10.246;2023-04-25T05:34:10;16.13;;;4.33;;
18748;SDS011;9503;53.560;10.246;2023-04-25T05:36:37;14.90;;;3.53;;
18748;SDS011;9503;53.560;10.246;2023-04-25T05:39:04;18.03;;;3.60;;
18748;SDS011;9503;53.560;10.246;2023-04-25T05:41:31;15.47;;;3.73;;
18748;SDS011;9503;53.560;10.246;2023-04-25T05:43:57;13.43;;;3.77;;
18748;SDS011;9503;53.560;10.246;2023-04-25T05:46:24;15.23;;;4.20;;
18748;SDS011;9503;53.560;10.246;2023-04-25T05:48:52;14.10;;;3.40;;
18748;SDS011;9503;53.560;10.246;2023-04-25T05:51:19;16.00;;;3.90;;
18748;SDS011;9503;53.560;10.246;2023-04-25T05:53:45;15.13;;;3.83;;
18748;SDS011;9503;53.560;10.246;2023-04-25T05:56:12;15.43;;;3.53;;
18748;SDS011;9503;53.560;10.246;2023-04-25T05:58:38;18.17;;;4.00;;
18748;SDS011;9503;53.560;10.246;2023-04-25T06:01:05;14.47;;;3.87;;
18748;SDS011;9503;53.560;10.246;2023-04-25T06:03:31;16.17;;;4.00;;
18748;SDS011;9503;53.560;10.246;2023-04-25T06:06:00;13.07;;;3.27;;
18748;SDS011;9503;53.560;10.246;2023-04-25T06:08:27;14.20;;;3.23;;
18748;SDS011;9503;53.560;10.246;2023-04-25T06:10:54;14.40;;;3.50;;
18748;SDS011;9503;53.560;10.246;2023-04-25T06:13:20;13.63;;;3.50;;
18748;SDS011;9503;53.560;10.246;2023-04-25T06:15:47;17.17;;;4.40;;
18748;SDS011;9503;53.560;10.246;2023-04-25T06:18:13;11.93;;;4.50;;
18748;SDS011;9503;53.560;10.246;2023-04-25T06:20:40;18.20;;;4.27;;
18748;SDS011;9503;53.560;10.246;2023-04-25T06:23:08;22.37;;;4.30;;
18748;SDS011;9503;53.560;10.246;2023-04-25T06:25:35;15.53;;;3.83;;
18748;SDS011;9503;53.560;10.246;2023-04-25T06:28:01;15.30;;;3.73;;
18748;SDS011;9503;53.560;10.246;2023-04-25T06:30:28;14.00;;;3.90;;
18748;SDS011;9503;53.560;10.246;2023-04-25T06:32:55;14.30;;;3.80;;
18748;SDS011;9503;53.560;10.246;2023-04-25T06:35:21;12.13;;;3.50;;
18748;SDS011;9503;53.560;10.246;2023-04-25T06:37:48;12.00;;;3.30;;
18748;SDS011;9503;53.560;10.246;2023-04-25T06:40:16;15.43;;;5.13;;
18748;SDS011;9503;53.560;10.246;2023-04-25T06:42:43;19.60;;;4.37;;
18748;SDS011;9503;53.560;10.246;2023-04-25T06:45:10;16.37;;;3.70;;
18748;SDS011;9503;53.560;10.246;2023-04-25T06:47:36;13.73;;;3.70;;
18748;SDS011;9503;53.560;10.246;2023-04-25T06:50:04;24.60;;;3.73;;
18748;SDS011;9503;53.560;10.246;2023-04-25T06:52:31;16.57;;;3.47;;
18748;SDS011;9503;53.560;10.246;2023-04-25T06:54:58;15.87;;;3.80;;
18748;SDS011;9503;53.560;10.246;2023-04-25T06:57:26;19.13;;;4.40;;
18748;SDS011;9503;53.560;10.246;2023-04-25T06:59:52;12.60;;;3.80;;
18748;SDS011;9503;53.560;10.246;2023-04-25T07:02:19;19.17;;;3.97;;
18748;SDS011;9503;53.560;10.246;2023-04-25T07:04:46;22.80;;;3.80;;
18748;SDS011;9503;53.560;10.246;2023-04-25T07:07:13;12.93;;;4.07;;
18748;SDS011;9503;53.560;10.246;2023-04-25T07:09:39;15.33;;;4.20;;
18748;SDS011;9503;53.560;10.246;2023-04-25T07:12:06;16.23;;;3.33;;
18748;SDS011;9503;53.560;10.246;2023-04-25T07:14:34;13.07;;;3.27;;
18748;SDS011;9503;53.560;10.246;2023-04-25T07:17:00;10.60;;;3.33;;
18748;SDS011;9503;53.560;10.246;2023-04-25T07:19:27;10.80;;;3.17;;
18748;SDS011;9503;53.560;10.246;2023-04-25T07:21:54;12.30;;;3.33;;
18748;SDS011;9503;53.560;10.246;2023-04-25T07:24:21;7.87;;;3.20;;
18748;SDS011;9503;53.560;10.246;2023-04-25T07:26:47;14.47;;;3.10;;
18748;SDS011;9503;53.560;10.246;2023-04-25T07:29:15;15.60;;;3.20;;
18748;SDS011;9503;53.560;10.246;2023-04-25T07:31:43;12.00;;;3.00;;
18748;SDS011;9503;53.560;10.246;2023-04-25T07:34:09;6.93;;;2.80;;
18748;SDS011;9503;53.560;10.246;2023-04-25T07:36:36;11.20;;;3.00;;
18748;SDS011;9503;53.560;10.246;2023-04-25T07:39:02;16.47;;;3.73;;
18748;SDS011;9503;53.560;10.246;2023-04-25T07:41:29;6.57;;;2.77;;
18748;SDS011;9503;53.560;10.246;2023-04-25T07:43:55;9.40;;;3.03;;
18748;SDS011;9503;53.560;10.246;2023-04-25T07:46:22;14.87;;;3.00;;
18748;SDS011;9503;53.560;10.246;2023-04-25T07:48:50;10.03;;;3.03;;
18748;SDS011;9503;53.560;10.246;2023-04-25T07:51:17;12.57;;;3.20;;
18748;SDS011;9503;53.560;10.246;2023-04-25T07:53:44;16.47;;;3.10;;
18748;SDS011;9503;53.560;10.246;2023-04-25T07:56:11;17.20;;;3.07;;
18748;SDS011;9503;53.560;10.246;2023-04-25T07:58:38;10.93;;;3.07;;
18748;SDS011;9503;53.560;10.246;2023-04-25T08:01:04;17.13;;;3.00;;
18748;SDS011;9503;53.560;10.246;2023-04-25T08:03:31;8.20;;;3.07;;
18748;SDS011;9503;53.560;10.246;2023-04-25T08:05:59;19.03;;;3.40;;
18748;SDS011;9503;53.560;10.246;2023-04-25T08:08:25;12.10;;;2.93;;
18748;SDS011;9503;53.560;10.246;2023-04-25T08:10:52;13.53;;;3.33;;
18748;SDS011;9503;53.560;10.246;2023-04-25T08:13:19;11.00;;;2.80;;
18748;SDS011;9503;53.560;10.246;2023-04-25T08:15:45;13.43;;;3.17;;
18748;SDS011;9503;53.560;10.246;2023-04-25T08:18:12;10.37;;;2.57;;
18748;SDS011;9503;53.560;10.246;2023-04-25T08:20:39;11.60;;;3.03;;
18748;SDS011;9503;53.560;10.246;2023-04-25T08:23:06;10.47;;;2.93;;
18748;SDS011;9503;53.560;10.246;2023-04-25T08:25:33;16.73;;;2.93;;
18748;SDS011;9503;53.560;10.246;2023-04-25T08:28:00;7.30;;;2.77;;
18748;SDS011;9503;53.560;10.246;2023-04-25T08:30:28;9.53;;;2.47;;
18748;SDS011;9503;53.560;10.246;2023-04-25T08:32:54;12.27;;;3.20;;
18748;SDS011;9503;53.560;10.246;2023-04-25T08:35:21;16.70;;;3.23;;
18748;SDS011;9503;53.560;10.246;2023-04-25T08:37:47;10.93;;;3.33;;
18748;SDS011;9503;53.560;10.246;2023-04-25T08:40:16;16.47;;;2.73;;
18748;SDS011;9503;53.560;10.246;2023-04-25T08:42:43;6.60;;;2.40;;
18748;SDS011;9503;53.560;10.246;2023-04-25T08:45:09;6.23;;;2.03;;
18748;SDS011;9503;53.560;10.246;2023-04-25T08:47:37;5.77;;;1.53;;
18748;SDS011;9503;53.560;10.246;2023-04-25T08:50:05;8.20;;;2.27;;
18748;SDS011;9503;53.560;10.246;2023-04-25T08:52:35;4.40;;;1.80;;
18748;SDS011;9503;53.560;10.246;2023-04-25T08:55:03;9.20;;;2.30;;
18748;SDS011;9503;53.560;10.246;2023-04-25T08:57:34;9.50;;;2.67;;
18748;SDS011;9503;53.560;10.246;2023-04-25T09:00:02;9.20;;;2.17;;
18748;SDS011;9503;53.560;10.246;2023-04-25T09:02:30;7.00;;;2.50;;
18748;SDS011;9503;53.560;10.246;2023-04-25T09:04:57;15.87;;;2.43;;
18748;SDS011;9503;53.560;10.246;2023-04-25T09:07:23;9.97;;;2.60;;
18748;SDS011;9503;53.560;10.246;2023-04-25T09:09:50;8.53;;;3.17;;
18748;SDS011;9503;53.560;10.246;2023-04-25T09:12:17;10.53;;;2.57;;
18748;SDS011;9503;53.560;10.246;2023-04-25T09:17:38;15.80;;;3.00;;
18748;SDS011;9503;53.560;10.246;2023-04-25T09:20:12;10.43;;;2.70;;
18748;SDS011;9503;53.560;10.246;2023-04-25T09:22:40;15.33;;;2.73;;
18748;SDS011;9503;53.560;10.246;2023-04-25T09:25:08;15.90;;;3.17;;
18748;SDS011;9503;53.560;10.246;2023-04-25T09:27:35;10.33;;;2.63;;
18748;SDS011;9503;53.560;10.246;2023-04-25T09:30:03;8.17;;;2.80;;
18748;SDS011;9503;53.560;10.246;2023-04-25T09:32:31;11.00;;;2.10;;
18748;SDS011;9503;53.560;10.246;2023-04-25T09:35:00;9.53;;;2.83;;
18748;SDS011;9503;53.560;10.246;2023-04-25T09:37:27;10.43;;;2.70;;
18748;SDS011;9503;53.560;10.246;2023-04-25T09:39:55;9.83;;;2.60;;
18748;SDS011;9503;53.560;10.246;2023-04-25T09:42:25;10.47;;;2.20;;
18748;SDS011;9503;53.560;10.246;2023-04-25T09:44:57;6.77;;;2.37;;
18748;SDS011;9503;53.560;10.246;2023-04-25T09:47:26;7.73;;;3.53;;
18748;SDS011;9503;53.560;10.246;2023-04-25T09:49:53;7.47;;;2.23;;
18748;SDS011;9503;53.560;10.246;2023-04-25T09:52:23;5.87;;;2.27;;
18748;SDS011;9503;53.560;10.246;2023-04-25T09:54:51;17.70;;;2.50;;
18748;SDS011;9503;53.560;10.246;2023-04-25T09:57:19;6.57;;;1.97;;
18748;SDS011;9503;53.560;10.246;2023-04-25T09:59:47;8.00;;;2.23;;
18748;SDS011;9503;53.560;10.246;2023-04-25T10:02:15;6.50;;;1.97;;
18748;SDS011;9503;53.560;10.246;2023-04-25T10:04:44;11.47;;;1.90;;
18748;SDS011;9503;53.560;10.246;2023-04-25T10:07:15;6.03;;;1.50;;
18748;SDS011;9503;53.560;10.246;2023-04-25T10:09:47;4.50;;;1.60;;
18748;SDS011;9503;53.560;10.246;2023-04-25T10:12:15;6.43;;;2.30;;
18748;SDS011;9503;53.560;10.246;2023-04-25T10:14:45;3.03;;;1.87;;
18748;SDS011;9503;53.560;10.246;2023-04-25T10:17:12;3.93;;;1.67;;
18748;SDS011;9503;53.560;10.246;2023-04-25T10:19:42;8.57;;;1.83;;
18748;SDS011;9503;53.560;10.246;2023-04-25T10:22:11;6.30;;;2.40;;
18748;SDS011;9503;53.560;10.246;2023-04-25T10:24:41;11.87;;;2.53;;
18748;SDS011;9503;53.560;10.246;2023-04-25T10:27:11;11.67;;;2.53;;
18748;SDS011;9503;53.560;10.246;2023-04-25T10:29:38;7.07;;;2.27;;
18748;SDS011;9503;53.560;10.246;2023-04-25T10:32:05;10.20;;;3.03;;
18748;SDS011;9503;53.560;10.246;2023-04-25T10:34:38;10.07;;;2.30;;
18748;SDS011;9503;53.560;10.246;2023-04-25T10:37:08;10.63;;;2.80;;
18748;SDS011;9503;53.560;10.246;2023-04-25T10:39:37;8.17;;;1.93;;
18748;SDS011;9503;53.560;10.246;2023-04-25T10:42:05;13.03;;;2.10;;
18748;SDS011;9503;53.560;10.246;2023-04-25T10:44:34;5.43;;;1.90;;
18748;SDS011;9503;53.560;10.246;2023-04-25T10:47:03;7.33;;;1.70;;
18748;SDS011;9503;53.560;10.246;2023-04-25T10:49:34;6.87;;;1.50;;
18748;SDS011;9503;53.560;10.246;2023-04-25T10:52:11;8.23;;;2.00;;
18748;SDS011;9503;53.560;10.246;2023-04-25T10:54:43;6.33;;;1.73;;
18748;SDS011;9503;53.560;10.246;2023-04-25T10:57:28;6.27;;;2.30;;
18748;SDS011;9503;53.560;10.246;2023-04-25T11:00:01;9.43;;;2.83;;
18748;SDS011;9503;53.560;10.246;2023-04-25T11:02:36;10.90;;;2.70;;
18748;SDS011;9503;53.560;10.246;2023-04-25T11:05:03;9.47;;;2.30;;
18748;SDS011;9503;53.560;10.246;2023-04-25T11:07:33;9.90;;;2.03;;
18748;SDS011;9503;53.560;10.246;2023-04-25T11:10:03;7.23;;;1.83;;
18748;SDS011;9503;53.560;10.246;2023-04-25T11:12:31;10.33;;;1.97;;
18748;SDS011;9503;53.560;10.246;2023-04-25T11:14:58;6.70;;;2.00;;
18748;SDS011;9503;53.560;10.246;2023-04-25T11:17:27;10.63;;;2.00;;
18748;SDS011;9503;53.560;10.246;2023-04-25T11:19:54;10.47;;;2.10;;
18748;SDS011;9503;53.560;10.246;2023-04-25T11:22:22;9.27;;;2.37;;
18748;SDS011;9503;53.560;10.246;2023-04-25T11:24:49;3.93;;;1.70;;
18748;SDS011;9503;53.560;10.246;2023-04-25T11:27:16;9.60;;;1.87;;
18748;SDS011;9503;53.560;10.246;2023-04-25T11:29:43;11.53;;;2.20;;
18748;SDS011;9503;53.560;10.246;2023-04-25T11:32:11;7.50;;;2.00;;
18748;SDS011;9503;53.560;10.246;2023-04-25T11:34:38;6.67;;;2.00;;
18748;SDS011;9503;53.560;10.246;2023-04-25T11:37:04;10.63;;;2.03;;
18748;SDS011;9503;53.560;10.246;2023-04-25T11:39:31;5.33;;;1.67;;
18748;SDS011;9503;53.560;10.246;2023-04-25T11:41:58;9.20;;;2.03;;
18748;SDS011;9503;53.560;10.246;2023-04-25T11:44:26;9.73;;;1.93;;
18748;SDS011;9503;53.560;10.246;2023-04-25T11:46:52;8.43;;;1.73;;
18748;SDS011;9503;53.560;10.246;2023-04-25T11:49:20;4.70;;;1.70;;
18748;SDS011;9503;53.560;10.246;2023-04-25T11:51:47;5.53;;;1.70;;
18748;SDS011;9503;53.560;10.246;2023-04-25T11:54:14;7.13;;;1.90;;
18748;SDS011;9503;53.560;10.246;2023-04-25T11:56:42;11.33;;;1.90;;
18748;SDS011;9503;53.560;10.246;2023-04-25T11:59:08;7.03;;;2.07;;
18748;SDS011;9503;53.560;10.246;2023-04-25T12:01:36;7.40;;;1.83;;
18748;SDS011;9503;53.560;10.246;2023-04-25T12:04:10;8.33;;;2.13;;
18748;SDS011;9503;53.560;10.246;2023-04-25T12:06:39;6.97;;;1.90;;
18748;SDS011;9503;53.560;10.246;2023-04-25T12:09:07;9.77;;;2.03;;
18748;SDS011;9503;53.560;10.246;2023-04-25T12:11:40;6.00;;;2.00;;
18748;SDS011;9503;53.560;10.246;2023-04-25T12:14:07;7.70;;;3.47;;
18748;SDS011;9503;53.560;10.246;2023-04-25T12:16:41;8.77;;;1.80;;
18748;SDS011;9503;53.560;10.246;2023-04-25T12:19:08;5.03;;;1.87;;
18748;SDS011;9503;53.560;10.246;2023-04-25T12:21:35;14.07;;;2.30;;
18748;SDS011;9503;53.560;10.246;2023-04-25T12:24:13;4.93;;;1.87;;
18748;SDS011;9503;53.560;10.246;2023-04-25T12:26:47;4.43;;;1.80;;
18748;SDS011;9503;53.560;10.246;2023-04-25T12:29:16;7.03;;;1.80;;
18748;SDS011;9503;53.560;10.246;2023-04-25T12:31:43;5.70;;;1.70;;
18748;SDS011;9503;53.560;10.246;2023-04-25T12:34:10;3.33;;;1.27;;
18748;SDS011;9503;53.560;10.246;2023-04-25T12:36:37;6.17;;;1.30;;
18748;SDS011;9503;53.560;10.246;2023-04-25T12:39:03;4.47;;;1.50;;
18748;SDS011;9503;53.560;10.246;2023-04-25T12:41:31;5.67;;;1.40;;
18748;SDS011;9503;53.560;10.246;2023-04-25T12:43:58;5.87;;;1.63;;
18748;SDS011;9503;53.560;10.246;2023-04-25T12:46:25;3.00;;;1.40;;
18748;SDS011;9503;53.560;10.246;2023-04-25T12:48:52;3.97;;;1.47;;
18748;SDS011;9503;53.560;10.246;2023-04-25T12:51:20;3.87;;;1.20;;
18748;SDS011;9503;53.560;10.246;2023-04-25T12:53:49;6.60;;;1.57;;
18748;SDS011;9503;53.560;10.246;2023-04-25T12:56:16;3.20;;;1.50;;
18748;SDS011;9503;53.560;10.246;2023-04-25T12:58:44;5.97;;;1.67;;
18748;SDS011;9503;53.560;10.246;2023-04-25T13:01:13;8.20;;;2.00;;
18748;SDS011;9503;53.560;10.246;2023-04-25T13:03:40;3.30;;;1.47;;
18748;SDS011;9503;53.560;10.246;2023-04-25T13:06:06;5.50;;;1.73;;
18748;SDS011;9503;53.560;10.246;2023-04-25T13:08:33;11.33;;;1.77;;
18748;SDS011;9503;53.560;10.246;2023-04-25T13:11:01;12.77;;;2.30;;
18748;SDS011;9503;53.560;10.246;2023-04-25T13:13:28;7.63;;;1.90;;
18748;SDS011;9503;53.560;10.246;2023-04-25T13:15:57;6.07;;;1.80;;
18748;SDS011;9503;53.560;10.246;2023-04-25T13:18:24;3.67;;;2.13;;
18748;SDS011;9503;53.560;10.246;2023-04-25T13:20:51;6.73;;;2.03;;
18748;SDS011;9503;53.560;10.246;2023-04-25T13:23:18;10.73;;;1.73;;
18748;SDS011;9503;53.560;10.246;2023-04-25T13:25:45;7.93;;;1.83;;
18748;SDS011;9503;53.560;10.246;2023-04-25T13:28:12;6.73;;;1.83;;
18748;SDS011;9503;53.560;10.246;2023-04-25T13:30:39;7.40;;;2.00;;
18748;SDS011;9503;53.560;10.246;2023-04-25T13:33:07;6.27;;;1.80;;
18748;SDS011;9503;53.560;10.246;2023-04-25T13:35:35;5.77;;;1.80;;
18748;SDS011;9503;53.560;10.246;2023-04-25T13:38:03;4.43;;;1.77;;
18748;SDS011;9503;53.560;10.246;2023-04-25T13:40:30;5.97;;;1.90;;
18748;SDS011;9503;53.560;10.246;2023-04-25T13:42:57;4.87;;;1.77;;
18748;SDS011;9503;53.560;10.246;2023-04-25T13:45:24;4.20;;;1.60;;
18748;SDS011;9503;53.560;10.246;2023-04-25T13:47:51;3.80;;;1.73;;
18748;SDS011;9503;53.560;10.246;2023-04-25T13:50:19;7.23;;;2.13;;
18748;SDS011;9503;53.560;10.246;2023-04-25T13:52:45;6.63;;;2.13;;
18748;SDS011;9503;53.560;10.246;2023-04-25T13:55:12;8.27;;;2.23;;
18748;SDS011;9503;53.560;10.246;2023-04-25T13:57:39;6.40;;;1.93;;
18748;SDS011;9503;53.560;10.246;2023-04-25T14:00:07;8.80;;;2.53;;
18748;SDS011;9503;53.560;10.246;2023-04-25T14:02:35;11.43;;;2.20;;
18748;SDS011;9503;53.560;10.246;2023-04-25T14:05:01;7.50;;;1.83;;
18748;SDS011;9503;53.560;10.246;2023-04-25T14:07:30;11.07;;;2.00;;
18748;SDS011;9503;53.560;10.246;2023-04-25T14:09:57;9.83;;;2.07;;
18748;SDS011;9503;53.560;10.246;2023-04-25T14:12:24;8.97;;;2.10;;
18748;SDS011;9503;53.560;10.246;2023-04-25T14:14:51;6.67;;;1.93;;
18748;SDS011;9503;53.560;10.246;2023-04-25T14:17:18;4.47;;;2.30;;
18748;SDS011;9503;53.560;10.246;2023-04-25T14:19:45;9.50;;;2.40;;
18748;SDS011;9503;53.560;10.246;2023-04-25T14:22:13;9.40;;;1.77;;
18748;SDS011;9503;53.560;10.246;2023-04-25T14:24:41;9.53;;;2.00;;
18748;SDS011;9503;53.560;10.246;2023-04-25T14:27:08;5.43;;;2.33;;
18748;SDS011;9503;53.560;10.246;2023-04-25T14:29:35;7.27;;;2.00;;
18748;SDS011;9503;53.560;10.246;2023-04-25T14:32:02;5.03;;;1.60;;
18748;SDS011;9503;53.560;10.246;2023-04-25T14:34:30;7.97;;;2.10;;
18748;SDS011;9503;53.560;10.246;2023-04-25T14:36:56;6.60;;;2.03;;
18748;SDS011;9503;53.560;10.246;2023-04-25T14:39:23;10.80;;;2.30;;
18748;SDS011;9503;53.560;10.246;2023-04-25T14:41:51;5.23;;;2.03;;
18748;SDS011;9503;53.560;10.246;2023-04-25T14:44:18;6.83;;;1.90;;
18748;SDS011;9503;53.560;10.246;2023-04-25T14:46:44;8.07;;;2.13;;
18748;SDS011;9503;53.560;10.246;2023-04-25T14:49:11;6.60;;;3.07;;
18748;SDS011;9503;53.560;10.246;2023-04-25T14:51:37;10.10;;;2.00;;
18748;SDS011;9503;53.560;10.246;2023-04-25T14:54:04;7.43;;;1.90;;
18748;SDS011;9503;53.560;10.246;2023-04-25T14:56:31;7.27;;;2.00;;
18748;SDS011;9503;53.560;10.246;2023-04-25T14:58:59;6.30;;;1.93;;
18748;SDS011;9503;53.560;10.246;2023-04-25T15:01:26;9.63;;;1.83;;
18748;SDS011;9503;53.560;10.246;2023-04-25T15:03:53;10.33;;;2.03;;
18748;SDS011;9503;53.560;10.246;2023-04-25T15:06:19;9.20;;;1.80;;
18748;SDS011;9503;53.560;10.246;2023-04-25T15:08:46;11.30;;;2.23;;
18748;SDS011;9503;53.560;10.246;2023-04-25T15:11:13;3.93;;;1.73;;
18748;SDS011;9503;53.560;10.246;2023-04-25T15:13:39;5.13;;;1.50;;
18748;SDS011;9503;53.560;10.246;2023-04-25T15:16:07;3.27;;;1.40;;
18748;SDS011;9503;53.560;10.246;2023-04-25T15:18:35;7.83;;;1.73;;
18748;SDS011;9503;53.560;10.246;2023-04-25T15:21:01;7.83;;;2.00;;
18748;SDS011;9503;53.560;10.246;2023-04-25T15:23:29;8.57;;;2.00;;
18748;SDS011;9503;53.560;10.246;2023-04-25T15:25:56;6.90;;;2.43;;